createdAt,value
2022-10-19T00:03:37.100Z,18.20
2022-10-19T00:08:44.937Z,18.10
2022-10-19T00:14:04.103Z,18.10
2022-10-19T00:19:14.201Z,18.10
2022-10-19T00:24:28.580Z,18.00
2022-10-19T00:29:33.122Z,18.10
2022-10-19T00:34:36.591Z,18.10
2022-10-19T00:39:43.606Z,18.00
2022-10-19T00:44:57.374Z,17.90
2022-10-19T00:50:00.541Z,17.90
2022-10-19T00:55:04.071Z,17.80
2022-10-19T01:00:09.399Z,17.90
2022-10-19T01:05:13.448Z,17.90
2022-10-19T01:10:17.222Z,17.90
2022-10-19T01:15:48.427Z,17.90
2022-10-19T01:21:03.318Z,17.90
2022-10-19T01:26:27.433Z,17.80
2022-10-19T01:32:08.531Z,17.80
2022-10-19T01:37:37.979Z,17.80
2022-10-19T01:43:12.812Z,17.80
2022-10-19T01:48:41.508Z,17.80
2022-10-19T01:53:51.190Z,17.70
2022-10-19T01:58:59.165Z,17.80
2022-10-19T02:04:05.910Z,17.70
2022-10-19T02:09:18.215Z,17.70
2022-10-19T02:14:27.433Z,17.70
2022-10-19T02:19:30.068Z,17.70
2022-10-19T02:24:35.738Z,17.70
2022-10-19T02:29:39.857Z,17.70
2022-10-19T02:34:42.581Z,17.70
2022-10-19T02:39:45.097Z,17.60
2022-10-19T02:45:18.239Z,17.60
2022-10-19T02:50:25.800Z,17.60
2022-10-19T02:55:30.146Z,17.60
2022-10-19T03:00:32.668Z,17.60
2022-10-19T03:05:35.341Z,17.60
2022-10-19T03:10:37.573Z,17.60
2022-10-19T03:15:39.832Z,17.60
2022-10-19T03:20:42.373Z,17.70
2022-10-19T03:25:47.366Z,17.80
2022-10-19T03:30:56.344Z,17.70
2022-10-19T03:36:20.813Z,17.70
2022-10-19T03:41:27.435Z,17.70
2022-10-19T03:46:32.455Z,17.60
2022-10-19T03:51:36.053Z,17.60
2022-10-19T03:56:38.470Z,17.50
2022-10-19T04:01:43.611Z,17.40
2022-10-19T04:06:48.420Z,17.40
2022-10-19T04:11:53.306Z,17.40
2022-10-19T04:16:57.468Z,17.40
2022-10-19T04:22:07.252Z,17.40
2022-10-19T04:27:32.070Z,17.50
2022-10-19T04:38:00.992Z,17.40
2022-10-19T04:43:09.225Z,17.30
2022-10-19T04:48:15.764Z,17.20
2022-10-19T04:53:19.488Z,17.20
2022-10-19T04:58:25.163Z,17.20
2022-10-19T05:03:27.319Z,17.30
2022-10-19T05:08:32.219Z,17.20
2022-10-19T05:13:44.273Z,17.20
2022-10-19T05:18:59.055Z,17.10
2022-10-19T05:24:05.520Z,17.10
2022-10-19T05:29:33.078Z,17.10
2022-10-19T05:34:35.824Z,17.10
2022-10-19T05:40:26.102Z,17.10
2022-10-19T05:45:43.395Z,17.20
2022-10-19T05:51:08.034Z,17.30
2022-10-19T06:02:09.491Z,17.30
2022-10-19T06:07:28.510Z,17.40
2022-10-19T06:12:35.764Z,17.30
2022-10-19T06:17:39.474Z,17.40
2022-10-19T06:22:50.260Z,17.40
2022-10-19T06:33:40.949Z,17.40
2022-10-19T06:39:08.863Z,17.40
2022-10-19T06:44:13.385Z,17.30
2022-10-19T06:49:21.157Z,17.30
2022-10-19T06:54:35.378Z,17.20
2022-10-19T07:05:59.441Z,17.40
2022-10-19T07:24:21.463Z,17.50
2022-10-19T07:29:45.996Z,17.60
2022-10-19T07:36:00.058Z,17.60
2022-10-19T07:54:31.931Z,17.60
2022-10-19T08:13:31.231Z,17.70
2022-10-19T08:18:37.095Z,17.80
2022-10-19T08:23:50.805Z,17.80
2022-10-19T08:29:12.849Z,17.80
2022-10-19T08:34:16.847Z,17.90
2022-10-19T08:39:54.677Z,18.00
2022-10-19T08:50:48.932Z,18.10
2022-10-19T08:56:57.789Z,18.20
2022-10-19T09:02:44.278Z,18.30
2022-10-19T09:08:20.351Z,18.50
2022-10-19T09:14:06.379Z,18.80
2022-10-19T09:19:43.025Z,19.20
2022-10-19T09:25:08.452Z,19.30
2022-10-19T09:30:32.966Z,19.80
2022-10-19T09:35:57.444Z,20.20
2022-10-19T09:41:33.678Z,20.40
2022-10-19T09:47:18.566Z,20.60
2022-10-19T09:58:39.575Z,19.90
2022-10-19T10:04:24.864Z,19.90
2022-10-19T10:10:25.529Z,19.80
2022-10-19T10:15:56.481Z,19.80
2022-10-19T10:21:28.834Z,19.70
2022-10-19T10:26:49.988Z,19.80
2022-10-19T10:32:19.794Z,20.10
2022-10-19T10:37:29.746Z,20.10
2022-10-19T10:42:45.788Z,20.10
2022-10-19T10:47:53.346Z,20.20
2022-10-19T10:53:39.939Z,20.50
2022-10-19T10:59:00.865Z,20.80
2022-10-19T11:04:19.661Z,20.80
2022-10-19T11:09:31.366Z,20.80
2022-10-19T11:14:42.225Z,20.70
2022-10-19T11:20:01.680Z,20.70
2022-10-19T11:26:01.397Z,20.70
2022-10-19T11:31:38.873Z,20.70
2022-10-19T11:37:28.780Z,20.90
2022-10-19T11:42:56.312Z,21.10
2022-10-19T11:48:54.963Z,21.20
2022-10-19T11:54:41.768Z,21.20
2022-10-19T12:29:12.027Z,21.10
2022-10-19T12:51:50.296Z,21.90
2022-10-19T13:03:15.422Z,22.10
2022-10-19T13:08:52.525Z,22.00
2022-10-19T13:14:28.827Z,22.10
2022-10-19T13:25:48.747Z,22.10
2022-10-19T13:38:03.913Z,22.20
2022-10-19T13:44:43.684Z,22.40
2022-10-19T14:10:01.029Z,22.20
2022-10-19T14:16:08.684Z,22.00
2022-10-19T14:22:30.358Z,21.80
2022-10-19T14:28:25.231Z,21.60
2022-10-19T14:33:36.651Z,21.50
2022-10-19T14:38:53.190Z,21.30
2022-10-19T14:45:14.487Z,21.20
2022-10-19T14:50:30.711Z,20.90
2022-10-19T15:07:40.032Z,20.80
2022-10-19T15:13:11.502Z,20.80
2022-10-19T15:18:44.067Z,20.80
2022-10-19T15:30:22.422Z,20.80
2022-10-19T15:35:34.364Z,20.70
2022-10-19T15:40:47.260Z,20.50
2022-10-19T15:46:44.085Z,20.40
2022-10-19T15:53:03.960Z,20.30
2022-10-19T15:58:15.857Z,20.20
2022-10-19T16:03:30.702Z,20.00
2022-10-19T16:08:44.751Z,19.90
2022-10-19T16:19:37.876Z,19.60
2022-10-19T16:25:06.353Z,19.70
2022-10-19T16:31:07.582Z,19.60
2022-10-19T16:43:20.828Z,19.40
2022-10-19T16:55:20.362Z,19.10
2022-10-19T17:00:58.324Z,19.00
2022-10-19T17:12:02.875Z,18.90
2022-10-19T17:17:10.791Z,18.80
2022-10-19T17:28:10.377Z,18.60
2022-10-19T17:33:22.808Z,18.50
2022-10-19T17:44:21.653Z,18.30
2022-10-19T17:49:30.742Z,18.20
2022-10-19T17:54:48.877Z,18.10
2022-10-19T18:00:16.895Z,18.00
2022-10-19T18:05:40.633Z,17.90
2022-10-19T18:10:43.827Z,17.80
2022-10-19T18:16:33.490Z,17.70
2022-10-19T18:21:44.938Z,17.60
2022-10-19T18:26:51.722Z,17.50
2022-10-19T18:31:57.570Z,17.50
2022-10-19T18:37:25.887Z,17.40
2022-10-19T18:42:39.581Z,17.30
2022-10-19T18:47:57.602Z,17.30
2022-10-19T18:53:10.032Z,17.20
2022-10-19T18:58:16.103Z,17.10
2022-10-19T19:03:23.086Z,17.00
2022-10-19T19:08:26.954Z,16.90
2022-10-19T19:13:46.509Z,16.80
2022-10-19T19:18:49.755Z,16.80
2022-10-19T19:23:55.845Z,16.70
2022-10-19T19:28:59.347Z,16.70
2022-10-19T19:34:07.405Z,16.60
2022-10-19T19:39:09.530Z,16.60
2022-10-19T19:44:26.026Z,16.50
2022-10-19T19:49:35.083Z,16.50
2022-10-19T19:54:41.378Z,16.40
2022-10-19T19:59:46.490Z,16.40
2022-10-19T20:04:54.170Z,16.30
2022-10-19T20:09:57.791Z,16.30
2022-10-19T20:15:01.735Z,16.20
2022-10-19T20:20:06.553Z,16.20
2022-10-19T20:25:16.654Z,16.10
2022-10-19T20:30:31.780Z,16.10
2022-10-19T20:35:38.171Z,16.00
2022-10-19T20:40:41.830Z,15.90
2022-10-19T20:45:45.345Z,15.90
2022-10-19T20:50:49.824Z,15.80
2022-10-19T20:56:12.100Z,15.70
2022-10-19T21:01:23.121Z,15.70
2022-10-19T21:06:27.905Z,15.60
2022-10-19T21:12:12.223Z,15.60
2022-10-19T21:17:14.746Z,15.50
2022-10-19T21:22:18.780Z,15.60
2022-10-19T21:27:23.841Z,15.60
2022-10-19T21:32:28.650Z,15.50
2022-10-19T21:37:33.711Z,15.50
2022-10-19T21:42:41.799Z,15.40
2022-10-19T21:47:59.703Z,15.30
2022-10-19T21:53:04.896Z,15.30
2022-10-19T21:58:07.495Z,15.30
2022-10-19T22:03:22.660Z,15.20
2022-10-19T22:08:25.628Z,15.30
2022-10-19T22:13:39.986Z,15.30
2022-10-19T22:18:45.875Z,15.30
2022-10-19T22:23:58.049Z,15.30
2022-10-19T22:29:02.445Z,15.30
2022-10-19T22:34:22.959Z,15.20
2022-10-19T22:39:27.745Z,15.30
2022-10-19T22:44:32.262Z,15.30
2022-10-19T22:49:35.507Z,15.30
2022-10-19T22:54:41.193Z,15.30
2022-10-19T22:59:49.066Z,15.30
2022-10-19T23:04:51.196Z,15.30
2022-10-19T23:09:56.918Z,15.30
2022-10-19T23:15:06.185Z,15.30
2022-10-19T23:20:16.397Z,15.30
2022-10-19T23:25:43.747Z,15.20
2022-10-19T23:30:46.157Z,15.20
2022-10-19T23:36:13.152Z,15.20
2022-10-19T23:41:28.660Z,15.20
2022-10-19T23:46:35.811Z,15.20
2022-10-19T23:51:48.281Z,15.20
2022-10-19T23:57:08.773Z,15.20
